createdAt,value
2022-12-12T00:01:35.028Z,97325.66
2022-12-12T00:06:38.036Z,97337.47
2022-12-12T00:11:41.059Z,97333.59
2022-12-12T00:16:43.537Z,97326.50
2022-12-12T00:21:46.162Z,97330.66
2022-12-12T00:26:48.544Z,97326.53
2022-12-12T00:31:51.051Z,97328.47
2022-12-12T00:36:53.551Z,97332.31
2022-12-12T00:41:55.932Z,97333.06
2022-12-12T00:46:58.352Z,97330.75
2022-12-12T00:52:00.906Z,97336.13
2022-12-12T00:57:03.429Z,97339.94
2022-12-12T01:02:06.205Z,97338.44
2022-12-12T01:07:09.095Z,97338.44
2022-12-12T01:12:11.872Z,97331.16
2022-12-12T01:17:14.375Z,97343.03
2022-12-12T01:22:17.247Z,97334.59
2022-12-12T01:27:19.947Z,97333.78
2022-12-12T01:32:22.620Z,97338.03
2022-12-12T01:37:25.240Z,97348.38
2022-12-12T01:42:29.607Z,97338.41
2022-12-12T01:47:32.027Z,97339.16
2022-12-12T01:52:50.039Z,97342.00
2022-12-12T01:57:54.455Z,97346.28
2022-12-12T02:02:57.890Z,97349.25
2022-12-12T02:08:03.307Z,97348.28
2022-12-12T02:13:11.795Z,97351.00
2022-12-12T02:18:22.420Z,97361.75
2022-12-12T02:24:02.151Z,97359.84
2022-12-12T02:29:29.095Z,97353.13
2022-12-12T02:34:38.946Z,97349.22
2022-12-12T02:39:44.651Z,97358.66
2022-12-12T02:45:22.941Z,97358.72
2022-12-12T02:50:28.721Z,97365.59
2022-12-12T02:55:35.084Z,97357.59
2022-12-12T03:00:52.784Z,97363.69
2022-12-12T03:06:25.961Z,97361.84
2022-12-12T03:11:46.092Z,97357.47
2022-12-12T03:16:52.352Z,97362.66
2022-12-12T03:22:03.486Z,97358.41
2022-12-12T03:27:12.411Z,97366.19
2022-12-12T03:32:23.634Z,97366.13
2022-12-12T03:37:34.656Z,97366.94
2022-12-12T03:42:48.918Z,97367.19
2022-12-12T03:48:03.315Z,97368.31
2022-12-12T03:53:19.089Z,97374.22
2022-12-12T03:58:28.717Z,97374.16
2022-12-12T04:03:43.002Z,97375.34
2022-12-12T04:09:07.328Z,97376.66
2022-12-12T04:14:24.486Z,97381.47
2022-12-12T04:20:34.533Z,97381.88
2022-12-12T04:26:23.547Z,97391.69
2022-12-12T04:31:29.208Z,97386.91
2022-12-12T04:36:34.641Z,97394.28
2022-12-12T04:41:40.638Z,97388.94
2022-12-12T04:46:44.891Z,97394.34
2022-12-12T04:51:52.784Z,97396.13
2022-12-12T04:57:00.104Z,97395.81
2022-12-12T05:02:10.070Z,97398.94
2022-12-12T05:07:23.543Z,97402.03
2022-12-12T05:12:26.955Z,97402.03
2022-12-12T05:17:35.345Z,97413.91
2022-12-12T05:22:40.984Z,97407.78
2022-12-12T05:27:43.457Z,97402.66
2022-12-12T05:32:45.999Z,97412.34
2022-12-12T05:37:51.971Z,97420.34
2022-12-12T05:42:54.923Z,97415.06
2022-12-12T05:47:57.971Z,97413.53
2022-12-12T05:53:00.392Z,97427.69
2022-12-12T05:58:02.964Z,97421.22
2022-12-12T06:03:05.433Z,97418.91
2022-12-12T06:08:08.367Z,97427.31
2022-12-12T06:13:10.929Z,97431.94
2022-12-12T06:18:13.359Z,97437.31
2022-12-12T06:23:15.747Z,97435.78
2022-12-12T06:28:18.129Z,97436.53
2022-12-12T06:33:20.758Z,97449.19
2022-12-12T06:38:23.250Z,97452.34
2022-12-12T06:43:25.632Z,97444.16
2022-12-12T06:48:28.263Z,97452.59
2022-12-12T06:53:30.695Z,97445.72
2022-12-12T06:58:33.135Z,97450.16
2022-12-12T07:03:35.756Z,97470.41
2022-12-12T07:08:38.747Z,97470.97
2022-12-12T07:13:41.519Z,97474.41
2022-12-12T07:18:44.052Z,97474.84
2022-12-12T07:23:46.813Z,97474.09
2022-12-12T07:28:50.671Z,97475.38
2022-12-12T07:33:54.633Z,97486.97
2022-12-12T07:38:57.080Z,97489.34
2022-12-12T07:44:00.185Z,97500.03
2022-12-12T07:49:02.560Z,97497.59
2022-12-12T07:54:05.067Z,97499.91
2022-12-12T07:59:08.178Z,97504.56
2022-12-12T08:04:10.867Z,97502.16
2022-12-12T08:09:13.326Z,97508.91
2022-12-12T08:14:15.816Z,97511.34
2022-12-12T08:19:18.743Z,97515.47
2022-12-12T08:24:21.955Z,97520.88
2022-12-12T08:29:24.420Z,97520.72
2022-12-12T08:34:27.023Z,97525.50
2022-12-12T08:39:29.435Z,97533.78
2022-12-12T08:44:32.274Z,97536.88
2022-12-12T08:49:34.662Z,97533.44
2022-12-12T08:54:38.465Z,97533.69
2022-12-12T08:59:41.034Z,97537.06
2022-12-12T09:04:43.658Z,97533.19
2022-12-12T09:09:46.079Z,97543.50
2022-12-12T09:14:48.526Z,97541.88
2022-12-12T09:19:50.971Z,97547.28
2022-12-12T09:24:53.402Z,97565.88
2022-12-12T09:29:56.176Z,97567.41
2022-12-12T09:34:58.654Z,97565.00
2022-12-12T09:40:01.498Z,97563.81
2022-12-12T09:45:08.056Z,97562.50
2022-12-12T09:50:32.339Z,97567.34
2022-12-12T09:55:49.664Z,97554.16
2022-12-12T10:01:21.558Z,97559.00
2022-12-12T10:06:38.706Z,97546.69
2022-12-12T10:11:55.971Z,97554.41
2022-12-12T10:17:00.087Z,97542.56
2022-12-12T10:22:14.986Z,97548.97
2022-12-12T10:27:17.743Z,97547.56
2022-12-12T10:32:29.287Z,97548.47
2022-12-12T10:37:45.464Z,97541.25
2022-12-12T10:43:18.865Z,97544.63
2022-12-12T10:48:21.398Z,97547.22
2022-12-12T10:53:24.547Z,97540.59
2022-12-12T10:58:43.891Z,97531.00
2022-12-12T11:03:52.285Z,97529.97
2022-12-12T11:09:00.828Z,97526.47
2022-12-12T11:14:21.050Z,97526.19
2022-12-12T11:19:27.408Z,97511.81
2022-12-12T11:24:32.701Z,97514.00
2022-12-12T11:29:45.557Z,97506.06
2022-12-12T11:34:54.352Z,97497.91
2022-12-12T11:39:57.761Z,97492.13
2022-12-12T11:45:14.352Z,97487.50
2022-12-12T11:50:22.563Z,97485.59
2022-12-12T11:55:54.737Z,97478.84
2022-12-12T12:01:07.079Z,97479.38
2022-12-12T12:06:37.004Z,97477.00
2022-12-12T12:11:53.310Z,97474.00
2022-12-12T12:17:30.395Z,97481.13
2022-12-12T12:22:58.340Z,97477.63
2022-12-12T12:28:21.027Z,97476.09
2022-12-12T12:33:59.150Z,97476.44
2022-12-12T12:39:49.152Z,97476.34
2022-12-12T12:44:55.322Z,97463.22
2022-12-12T12:50:21.493Z,97465.69
2022-12-12T12:55:32.461Z,97469.50
2022-12-12T13:00:36.568Z,97462.16
2022-12-12T13:05:56.866Z,97469.25
2022-12-12T13:11:15.679Z,97460.78
2022-12-12T13:16:22.993Z,97463.56
2022-12-12T13:21:56.860Z,97465.72
2022-12-12T13:27:21.030Z,97459.22
2022-12-12T13:33:10.868Z,97449.16
2022-12-12T13:38:27.717Z,97456.38
2022-12-12T13:43:42.530Z,97468.97
2022-12-12T13:48:56.186Z,97456.69
2022-12-12T13:54:12.741Z,97451.75
2022-12-12T13:59:27.915Z,97450.03
2022-12-12T14:04:35.842Z,97452.13
2022-12-12T14:09:50.923Z,97463.00
2022-12-12T14:15:01.306Z,97467.03
2022-12-12T14:20:05.273Z,97473.19
2022-12-12T14:25:19.605Z,97468.56
2022-12-12T14:30:54.194Z,97467.94
2022-12-12T14:36:09.049Z,97466.44
2022-12-12T14:41:18.218Z,97465.75
2022-12-12T14:46:21.496Z,97458.81
2022-12-12T14:51:30.033Z,97454.97
2022-12-12T14:56:41.100Z,97441.97
2022-12-12T15:01:53.379Z,97440.25
2022-12-12T15:07:01.291Z,97442.19
2022-12-12T15:12:43.377Z,97444.44
2022-12-12T15:17:50.828Z,97457.50
2022-12-12T15:22:57.348Z,97458.31
2022-12-12T15:28:00.841Z,97462.34
2022-12-12T15:33:07.692Z,97471.59
2022-12-12T15:38:13.926Z,97467.72
2022-12-12T15:43:23.419Z,97469.59
2022-12-12T15:48:26.556Z,97463.06
2022-12-12T15:53:55.639Z,97460.81
2022-12-12T15:59:09.995Z,97455.19
2022-12-12T16:04:12.433Z,97457.13
2022-12-12T16:09:19.763Z,97453.97
2022-12-12T16:14:42.828Z,97455.53
2022-12-12T16:19:48.003Z,97458.56
2022-12-12T16:24:54.237Z,97454.88
2022-12-12T16:29:56.655Z,97467.88
2022-12-12T16:34:59.110Z,97474.09
2022-12-12T16:40:01.896Z,97476.38
2022-12-12T16:45:05.057Z,97482.53
2022-12-12T16:50:08.318Z,97494.00
2022-12-12T16:55:31.288Z,97486.38
2022-12-12T17:00:33.787Z,97498.28
2022-12-12T17:05:38.813Z,97494.06
2022-12-12T17:10:41.825Z,97496.34
2022-12-12T17:15:44.409Z,97492.50
2022-12-12T17:20:47.778Z,97495.56
2022-12-12T17:25:50.368Z,97494.03
2022-12-12T17:30:53.796Z,97485.59
2022-12-12T17:36:01.509Z,97482.44
2022-12-12T17:41:09.055Z,97500.47
2022-12-12T17:46:14.801Z,97495.31
2022-12-12T17:51:20.095Z,97488.66
2022-12-12T17:56:25.167Z,97481.69
2022-12-12T18:01:31.602Z,97486.38
2022-12-12T18:06:36.169Z,97484.84
2022-12-12T18:11:39.243Z,97487.16
2022-12-12T18:16:44.236Z,97485.44
2022-12-12T18:22:02.711Z,97488.56
2022-12-12T18:27:05.490Z,97487.88
2022-12-12T18:32:08.231Z,97489.78
2022-12-12T18:37:11.652Z,97484.78
2022-12-12T18:42:14.252Z,97489.81
2022-12-12T18:47:16.705Z,97486.44
2022-12-12T18:52:19.168Z,97475.47
2022-12-12T18:57:21.615Z,97492.47
2022-12-12T19:02:24.122Z,97491.53
2022-12-12T19:07:26.610Z,97489.72
2022-12-12T19:12:29.062Z,97479.38
2022-12-12T19:17:31.842Z,97481.22
2022-12-12T19:22:49.994Z,97477.78
2022-12-12T19:27:52.675Z,97479.81
2022-12-12T19:32:55.846Z,97478.69
2022-12-12T19:37:58.229Z,97476.41
2022-12-12T19:43:00.627Z,97484.06
2022-12-12T19:48:03.169Z,97476.22
2022-12-12T19:53:05.702Z,97476.03
2022-12-12T19:58:08.369Z,97468.44
2022-12-12T20:03:11.174Z,97474.25
2022-12-12T20:08:13.740Z,97473.97
2022-12-12T20:13:16.164Z,97478.19
2022-12-12T20:18:18.649Z,97477.09
2022-12-12T20:23:21.089Z,97465.91
2022-12-12T20:28:23.752Z,97471.81
2022-12-12T20:33:26.150Z,97472.34
2022-12-12T20:38:30.882Z,97474.06
2022-12-12T20:43:33.536Z,97465.75
2022-12-12T20:48:36.655Z,97466.16
2022-12-12T20:53:41.448Z,97466.09
2022-12-12T20:58:44.599Z,97469.38
2022-12-12T21:03:48.860Z,97473.31
2022-12-12T21:08:52.726Z,97472.16
2022-12-12T21:13:55.605Z,97469.75
2022-12-12T21:19:00.600Z,97458.06
2022-12-12T21:24:03.927Z,97461.03
2022-12-12T21:29:06.826Z,97458.38
2022-12-12T21:34:10.025Z,97450.00
2022-12-12T21:39:13.654Z,97449.00
2022-12-12T21:44:16.091Z,97452.28
2022-12-12T21:49:27.933Z,97440.91
2022-12-12T21:54:31.376Z,97444.09
2022-12-12T21:59:37.554Z,97446.06
2022-12-12T22:04:40.355Z,97438.34
2022-12-12T22:09:57.233Z,97437.88
2022-12-12T22:15:21.090Z,97440.69
2022-12-12T22:20:47.137Z,97442.47
2022-12-12T22:25:51.962Z,97444.88
2022-12-12T22:30:55.105Z,97443.03
2022-12-12T22:36:06.456Z,97442.03
2022-12-12T22:41:15.102Z,97440.66
2022-12-12T22:46:28.255Z,97431.84
2022-12-12T22:51:44.387Z,97429.22
2022-12-12T22:56:54.009Z,97433.31
2022-12-12T23:02:02.885Z,97416.94
2022-12-12T23:07:25.010Z,97416.59
2022-12-12T23:13:33.115Z,97424.50
2022-12-12T23:18:27.698Z,97407.81
2022-12-12T23:23:32.582Z,97401.09
2022-12-12T23:28:36.577Z,97397.59
2022-12-12T23:33:39.848Z,97393.53
2022-12-12T23:38:42.757Z,97393.22
2022-12-12T23:43:45.294Z,97389.56
2022-12-12T23:48:47.843Z,97391.13
2022-12-12T23:53:50.252Z,97382.38
2022-12-12T23:59:20.116Z,97380.59
